createdAt,value
2018-04-07T00:01:41.848Z,8.70
2018-04-07T00:04:09.841Z,8.60
2018-04-07T00:06:37.603Z,8.60
2018-04-07T00:09:05.915Z,8.60
2018-04-07T00:11:33.451Z,8.70
2018-04-07T00:14:01.828Z,8.70
2018-04-07T00:16:29.592Z,8.60
2018-04-07T00:18:57.351Z,8.60
2018-04-07T00:21:25.131Z,8.50
2018-04-07T00:23:53.486Z,8.40
2018-04-07T00:26:20.983Z,8.40
2018-04-07T00:28:48.512Z,8.30
2018-04-07T00:31:16.152Z,8.40
2018-04-07T00:33:43.768Z,8.40
2018-04-07T00:36:12.028Z,8.40
2018-04-07T00:38:39.772Z,8.40
2018-04-07T00:41:07.624Z,8.40
2018-04-07T00:43:35.128Z,8.40
2018-04-07T00:46:03.387Z,8.60
2018-04-07T00:48:30.891Z,8.60
2018-04-07T00:50:58.572Z,8.60
2018-04-07T00:53:26.063Z,8.50
2018-04-07T00:55:53.787Z,8.40
2018-04-07T00:58:21.284Z,8.40
2018-04-07T01:00:48.792Z,8.50
2018-04-07T01:03:16.466Z,8.50
2018-04-07T01:05:43.984Z,8.50
2018-04-07T01:08:11.687Z,8.30
2018-04-07T01:10:39.187Z,8.40
2018-04-07T01:13:06.704Z,8.30
2018-04-07T01:15:34.200Z,8.40
2018-04-07T01:18:02.464Z,8.50
2018-04-07T01:20:30.200Z,8.50
2018-04-07T01:22:57.707Z,8.50
2018-04-07T01:25:25.422Z,8.60
2018-04-07T01:27:53.184Z,8.40
2018-04-07T01:30:20.953Z,8.50
2018-04-07T01:32:48.728Z,8.60
2018-04-07T01:35:16.471Z,8.60
2018-04-07T01:37:44.017Z,8.60
2018-04-07T01:40:12.976Z,8.60
2018-04-07T01:42:40.480Z,8.50
2018-04-07T01:45:07.992Z,8.50
2018-04-07T01:47:35.495Z,8.40
2018-04-07T01:50:03.039Z,8.30
2018-04-07T01:52:30.823Z,8.30
2018-04-07T01:54:58.333Z,8.30
2018-04-07T01:57:26.231Z,8.20
2018-04-07T01:59:53.825Z,8.20
2018-04-07T02:02:21.320Z,8.10
2018-04-07T02:04:49.751Z,8.10
2018-04-07T02:07:17.862Z,8.10
2018-04-07T02:09:46.125Z,8.20
2018-04-07T02:12:13.626Z,8.20
2018-04-07T02:14:41.128Z,8.30
2018-04-07T02:17:08.723Z,8.30
2018-04-07T02:19:36.228Z,8.30
2018-04-07T02:22:03.721Z,8.30
2018-04-07T02:24:31.345Z,8.30
2018-04-07T02:26:58.925Z,8.30
2018-04-07T02:29:26.630Z,8.20
2018-04-07T02:31:54.125Z,8.20
2018-04-07T02:34:21.654Z,8.10
2018-04-07T02:36:49.300Z,8.20
2018-04-07T02:39:16.817Z,8.20
2018-04-07T02:41:44.448Z,8.20
2018-04-07T02:44:11.947Z,8.10
2018-04-07T02:46:39.494Z,8.20
2018-04-07T02:49:06.979Z,8.30
2018-04-07T02:51:34.684Z,8.20
2018-04-07T02:54:03.077Z,8.20
2018-04-07T02:56:30.583Z,8.20
2018-04-07T02:58:58.093Z,8.10
2018-04-07T03:01:25.739Z,8.00
2018-04-07T03:03:53.824Z,7.90
2018-04-07T03:06:21.330Z,7.80
2018-04-07T03:08:49.056Z,7.80
2018-04-07T03:11:16.550Z,7.80
2018-04-07T03:13:44.248Z,7.80
2018-04-07T03:16:11.730Z,7.80
2018-04-07T03:18:39.219Z,7.80
2018-04-07T03:21:06.732Z,7.90
2018-04-07T03:23:34.233Z,7.90
2018-04-07T03:26:01.792Z,7.90
2018-04-07T03:28:29.302Z,7.90
2018-04-07T03:30:56.904Z,7.80
2018-04-07T03:33:25.461Z,7.70
2018-04-07T03:35:53.523Z,7.70
2018-04-07T03:38:21.023Z,7.70
2018-04-07T03:40:48.726Z,7.60
2018-04-07T03:43:16.503Z,7.60
2018-04-07T03:45:44.003Z,7.60
2018-04-07T03:48:11.500Z,7.50
2018-04-07T03:50:38.996Z,7.50
2018-04-07T03:53:07.552Z,7.50
2018-04-07T03:55:35.311Z,7.50
2018-04-07T03:58:03.731Z,7.60
2018-04-07T04:00:31.265Z,7.40
2018-04-07T04:02:58.874Z,7.50
2018-04-07T04:05:26.396Z,7.50
2018-04-07T04:07:53.908Z,7.50
2018-04-07T04:10:21.431Z,7.40
2018-04-07T04:12:49.968Z,7.50
2018-04-07T04:15:17.727Z,7.50
2018-04-07T04:17:45.283Z,7.30
2018-04-07T04:20:12.771Z,7.40
2018-04-07T04:22:40.304Z,7.40
2018-04-07T04:25:07.859Z,7.40
2018-04-07T04:27:35.582Z,7.40
2018-04-07T04:30:03.452Z,7.40
2018-04-07T04:32:30.939Z,7.40
2018-04-07T04:34:58.436Z,7.40
2018-04-07T04:37:26.170Z,7.30
2018-04-07T04:39:53.781Z,7.40
2018-04-07T04:42:21.300Z,7.50
2018-04-07T04:44:48.799Z,7.40
2018-04-07T04:47:16.480Z,7.40
2018-04-07T04:49:43.987Z,7.50
2018-04-07T04:52:12.162Z,7.40
2018-04-07T04:54:39.795Z,7.40
2018-04-07T04:57:07.671Z,7.40
2018-04-07T04:59:35.197Z,7.30
2018-04-07T05:02:03.104Z,7.30
2018-04-07T05:04:30.617Z,7.30
2018-04-07T05:06:58.284Z,7.30
2018-04-07T05:09:26.090Z,7.40
2018-04-07T05:11:53.824Z,7.40
2018-04-07T05:14:22.151Z,7.40
2018-04-07T05:16:49.671Z,7.50
2018-04-07T05:19:17.162Z,7.50
2018-04-07T05:21:44.678Z,7.60
2018-04-07T05:24:12.726Z,7.60
2018-04-07T05:26:40.228Z,7.40
2018-04-07T05:29:07.725Z,7.40
2018-04-07T05:31:35.348Z,7.30
2018-04-07T05:34:02.847Z,7.50
2018-04-07T05:36:30.372Z,7.60
2018-04-07T05:38:57.877Z,7.60
2018-04-07T05:41:25.477Z,7.80
2018-04-07T05:43:53.449Z,7.80
2018-04-07T05:46:20.996Z,7.60
2018-04-07T05:48:48.724Z,7.70
2018-04-07T05:51:16.756Z,7.60
2018-04-07T05:53:45.128Z,7.70
2018-04-07T05:56:12.676Z,7.70
2018-04-07T05:58:40.244Z,8.00
2018-04-07T06:01:07.844Z,8.00
2018-04-07T06:03:35.515Z,8.60
2018-04-07T06:06:03.219Z,8.80
2018-04-07T06:08:31.423Z,9.50
2018-04-07T06:10:58.924Z,9.60
2018-04-07T06:13:26.704Z,9.30
2018-04-07T06:15:54.196Z,9.30
2018-04-07T06:18:21.725Z,9.30
2018-04-07T06:20:49.220Z,9.60
2018-04-07T06:23:17.154Z,9.70
2018-04-07T06:25:44.983Z,9.10
2018-04-07T06:28:12.471Z,8.80
2018-04-07T06:30:40.129Z,8.80
2018-04-07T06:33:07.883Z,8.60
2018-04-07T06:35:35.376Z,8.20
2018-04-07T06:38:02.896Z,8.30
2018-04-07T06:40:30.404Z,8.20
2018-04-07T06:42:58.667Z,8.40
2018-04-07T06:45:26.352Z,8.40
2018-04-07T06:47:53.867Z,8.30
2018-04-07T06:50:22.880Z,8.20
2018-04-07T06:52:51.080Z,8.20
2018-04-07T06:55:18.639Z,8.30
2018-04-07T06:57:46.136Z,8.30
2018-04-07T07:00:13.638Z,8.40
2018-04-07T07:02:41.324Z,8.60
2018-04-07T07:05:08.824Z,8.70
2018-04-07T07:07:36.593Z,8.70
2018-04-07T07:10:04.336Z,8.70
2018-04-07T07:12:32.719Z,8.80
2018-04-07T07:15:00.220Z,8.70
2018-04-07T07:17:28.144Z,8.90
2018-04-07T07:19:55.640Z,9.00
2018-04-07T07:22:23.256Z,9.50
2018-04-07T07:24:50.782Z,9.50
2018-04-07T07:27:18.688Z,9.60
2018-04-07T07:29:46.308Z,9.70
2018-04-07T07:32:14.848Z,9.80
2018-04-07T07:34:42.589Z,9.90
2018-04-07T07:37:10.369Z,10.00
2018-04-07T07:39:37.871Z,9.90
2018-04-07T07:42:05.988Z,10.00
2018-04-07T07:44:33.639Z,10.10
2018-04-07T07:47:01.709Z,10.20
2018-04-07T07:49:29.216Z,10.20
2018-04-07T07:51:57.624Z,10.20
2018-04-07T07:54:25.352Z,10.10
2018-04-07T07:56:53.467Z,10.20
2018-04-07T07:59:21.164Z,10.20
2018-04-07T08:01:48.931Z,10.30
2018-04-07T08:04:17.600Z,10.30
2018-04-07T08:06:46.060Z,10.50
2018-04-07T08:09:13.747Z,10.50
2018-04-07T08:11:41.604Z,10.60
2018-04-07T08:14:09.259Z,10.70
2018-04-07T08:16:37.027Z,10.80
2018-04-07T08:25:00.451Z,10.90
2018-04-07T08:27:28.016Z,11.00
2018-04-07T08:29:55.514Z,11.10
2018-04-07T08:32:23.199Z,11.30
2018-04-07T08:34:50.735Z,11.30
2018-04-07T08:37:18.249Z,11.30
2018-04-07T08:39:47.286Z,11.30
2018-04-07T08:42:15.579Z,11.60
2018-04-07T08:44:43.272Z,11.60
2018-04-07T08:47:11.031Z,11.90
2018-04-07T08:49:38.557Z,11.90
2018-04-07T08:52:06.251Z,12.10
2018-04-07T08:54:33.773Z,12.10
2018-04-07T08:57:01.461Z,12.10
2018-04-07T08:59:28.963Z,12.20
2018-04-07T09:01:56.475Z,12.30
2018-04-07T09:04:24.132Z,12.40
2018-04-07T09:06:51.915Z,12.50
2018-04-07T09:09:19.679Z,12.40
2018-04-07T09:11:47.199Z,12.40
2018-04-07T09:14:14.914Z,12.50
2018-04-07T09:16:42.431Z,12.60
2018-04-07T09:19:10.000Z,12.60
2018-04-07T09:21:37.585Z,12.70
2018-04-07T09:24:05.342Z,12.80
2018-04-07T09:26:32.878Z,13.00
2018-04-07T09:29:00.391Z,13.00
2018-04-07T09:31:28.875Z,13.10
2018-04-07T09:33:56.432Z,13.10
2018-04-07T09:36:24.347Z,13.30
2018-04-07T09:38:51.860Z,13.40
2018-04-07T09:41:19.367Z,13.50
2018-04-07T09:43:46.890Z,13.50
2018-04-07T09:46:14.576Z,13.60
2018-04-07T09:48:42.091Z,13.50
2018-04-07T09:51:10.144Z,13.60
2018-04-07T09:53:37.664Z,13.70
2018-04-07T09:56:05.326Z,13.70
2018-04-07T09:58:33.456Z,13.70
2018-04-07T10:01:00.981Z,13.90
2018-04-07T10:03:28.486Z,14.10
2018-04-07T10:05:56.759Z,15.10
2018-04-07T10:08:24.285Z,15.20
2018-04-07T10:10:52.119Z,15.60
2018-04-07T10:13:19.710Z,15.70
2018-04-07T10:15:47.456Z,15.70
2018-04-07T10:18:15.002Z,15.50
2018-04-07T10:20:42.655Z,15.40
2018-04-07T10:23:10.439Z,15.60
2018-04-07T10:25:38.207Z,15.50
2018-04-07T10:28:05.750Z,15.60
2018-04-07T10:30:33.257Z,15.80
2018-04-07T10:33:01.521Z,15.90
2018-04-07T10:35:29.042Z,16.00
2018-04-07T10:37:56.550Z,16.40
2018-04-07T10:40:24.068Z,16.30
2018-04-07T10:42:51.571Z,16.50
2018-04-07T10:45:20.395Z,16.20
2018-04-07T10:47:48.108Z,15.70
2018-04-07T10:50:15.644Z,15.30
2018-04-07T10:52:43.202Z,15.10
2018-04-07T10:55:10.667Z,15.10
2018-04-07T10:57:38.192Z,15.10
2018-04-07T11:00:05.740Z,15.30
2018-04-07T11:02:33.238Z,15.30
2018-04-07T11:05:00.878Z,15.40
2018-04-07T11:07:28.375Z,15.60
2018-04-07T11:09:56.657Z,15.40
2018-04-07T11:12:24.168Z,15.50
2018-04-07T11:14:51.673Z,15.50
2018-04-07T11:17:19.184Z,15.50
2018-04-07T11:19:46.848Z,15.50
2018-04-07T11:22:14.620Z,15.40
2018-04-07T11:24:42.150Z,15.40
2018-04-07T11:27:09.723Z,15.50
2018-04-07T11:29:37.292Z,15.50
2018-04-07T11:32:05.055Z,15.50
2018-04-07T11:34:32.555Z,15.60
2018-04-07T11:37:00.278Z,15.70
2018-04-07T11:39:28.000Z,15.70
2018-04-07T11:41:55.502Z,15.70
2018-04-07T11:44:23.272Z,15.80
2018-04-07T11:46:51.023Z,15.90
2018-04-07T11:49:18.552Z,16.00
2018-04-07T11:51:46.061Z,16.00
2018-04-07T11:54:13.567Z,16.00
2018-04-07T11:56:41.795Z,16.00
2018-04-07T11:59:09.320Z,15.90
2018-04-07T12:01:36.830Z,15.90
2018-04-07T12:04:05.168Z,16.00
2018-04-07T12:06:32.798Z,16.00
2018-04-07T12:09:00.308Z,16.10
2018-04-07T12:11:27.868Z,16.30
2018-04-07T12:13:55.339Z,16.30
2018-04-07T12:16:23.624Z,16.50
2018-04-07T12:18:51.380Z,16.40
2018-04-07T12:21:19.113Z,16.60
2018-04-07T12:23:47.839Z,16.60
2018-04-07T12:26:15.422Z,16.70
2018-04-07T12:28:43.008Z,16.70
2018-04-07T12:31:10.511Z,16.60
2018-04-07T12:33:38.199Z,16.60
2018-04-07T12:36:05.757Z,17.00
2018-04-07T12:38:33.258Z,17.30
2018-04-07T12:41:00.900Z,17.50
2018-04-07T12:43:28.406Z,17.60
2018-04-07T12:45:56.133Z,17.60
2018-04-07T12:48:23.643Z,17.80
2018-04-07T12:50:51.972Z,17.90
2018-04-07T12:53:19.469Z,18.00
2018-04-07T12:55:47.193Z,18.20
2018-04-07T12:58:14.686Z,18.20
2018-04-07T13:00:42.980Z,18.50
2018-04-07T13:03:10.775Z,18.50
2018-04-07T13:05:38.288Z,18.40
2018-04-07T13:08:05.809Z,18.30
2018-04-07T13:10:33.447Z,18.40
2018-04-07T13:13:01.787Z,18.50
2018-04-07T13:15:29.306Z,18.50
2018-04-07T13:17:56.810Z,18.50
2018-04-07T13:20:24.324Z,18.60
2018-04-07T13:22:52.547Z,18.70
2018-04-07T13:25:20.063Z,18.80
2018-04-07T13:27:47.808Z,18.60
2018-04-07T13:30:15.334Z,18.70
2018-04-07T13:32:42.827Z,18.60
2018-04-07T13:35:10.475Z,18.50
2018-04-07T13:37:38.435Z,18.40
2018-04-07T13:40:05.991Z,18.50
2018-04-07T13:42:33.507Z,18.50
2018-04-07T13:45:01.419Z,18.40
2018-04-07T13:47:28.994Z,18.70
2018-04-07T13:49:56.503Z,18.70
2018-04-07T13:52:24.175Z,18.60
2018-04-07T13:54:51.983Z,18.80
2018-04-07T13:57:19.499Z,19.10
2018-04-07T13:59:47.013Z,19.20
2018-04-07T14:02:15.243Z,19.20
2018-04-07T14:04:42.751Z,19.30
2018-04-07T14:07:11.064Z,19.50
2018-04-07T14:09:38.574Z,19.60
2018-04-07T14:12:07.856Z,19.60
2018-04-07T14:14:35.623Z,19.70
2018-04-07T14:17:03.171Z,19.80
2018-04-07T14:19:30.820Z,19.90
2018-04-07T14:21:58.354Z,20.10
2018-04-07T14:24:25.855Z,20.30
2018-04-07T14:26:53.508Z,20.20
2018-04-07T14:29:21.062Z,19.90
2018-04-07T14:31:48.716Z,20.10
2018-04-07T14:34:16.228Z,20.20
2018-04-07T14:36:43.761Z,20.30
2018-04-07T14:39:11.264Z,20.50
2018-04-07T14:41:38.786Z,20.50
2018-04-07T14:44:06.910Z,20.30
2018-04-07T14:46:34.566Z,20.30
2018-04-07T14:49:02.064Z,20.30
2018-04-07T14:51:29.590Z,20.40
2018-04-07T14:53:57.092Z,20.30
2018-04-07T14:56:24.624Z,20.40
2018-04-07T14:58:52.185Z,20.50
2018-04-07T15:01:19.714Z,20.60
2018-04-07T15:03:47.223Z,20.60
2018-04-07T15:06:14.742Z,20.40
2018-04-07T15:08:42.510Z,20.30
2018-04-07T15:11:10.155Z,20.10
2018-04-07T15:13:37.954Z,20.20
2018-04-07T15:16:05.482Z,20.10
2018-04-07T15:18:32.998Z,20.00
2018-04-07T15:21:01.272Z,19.80
2018-04-07T15:23:28.983Z,19.80
2018-04-07T15:25:56.764Z,19.70
2018-04-07T15:28:24.283Z,19.60
2018-04-07T15:30:52.177Z,19.50
2018-04-07T15:33:19.695Z,19.50
2018-04-07T15:35:47.220Z,19.40
2018-04-07T15:38:14.737Z,19.30
2018-04-07T15:40:42.427Z,19.40
2018-04-07T15:43:09.943Z,19.40
2018-04-07T15:45:37.822Z,19.60
2018-04-07T15:48:05.429Z,19.60
2018-04-07T15:50:33.040Z,19.80
2018-04-07T15:53:00.640Z,20.00
2018-04-07T15:55:28.382Z,19.80
2018-04-07T15:57:55.916Z,20.00
2018-04-07T16:00:23.594Z,20.30
2018-04-07T16:02:51.136Z,20.20
2018-04-07T16:05:18.642Z,20.40
2018-04-07T16:07:46.275Z,20.50
2018-04-07T16:10:13.784Z,20.40
2018-04-07T16:12:41.317Z,20.30
2018-04-07T16:15:08.938Z,20.10
2018-04-07T16:17:36.459Z,19.90
2018-04-07T16:20:05.339Z,19.70
2018-04-07T16:22:32.856Z,19.50
2018-04-07T16:25:00.641Z,19.50
2018-04-07T16:27:28.242Z,19.40
2018-04-07T16:29:56.517Z,19.10
2018-04-07T16:32:24.536Z,19.00
2018-04-07T16:34:52.057Z,19.00
2018-04-07T16:37:19.590Z,18.90
2018-04-07T16:39:48.277Z,19.00
2018-04-07T16:42:15.793Z,19.00
2018-04-07T16:44:43.664Z,19.10
2018-04-07T16:47:11.198Z,19.20
2018-04-07T16:49:38.718Z,19.00
2018-04-07T16:52:07.003Z,18.80
2018-04-07T16:54:34.540Z,18.80
2018-04-07T16:57:02.196Z,18.80
2018-04-07T16:59:31.215Z,18.80
2018-04-07T17:01:58.935Z,18.80
2018-04-07T17:04:28.874Z,18.80
2018-04-07T17:06:57.887Z,18.30
2018-04-07T17:09:25.432Z,18.20
2018-04-07T17:11:53.711Z,18.00
2018-04-07T17:14:21.408Z,18.00
2018-04-07T17:16:48.920Z,18.00
2018-04-07T17:19:16.691Z,18.00
2018-04-07T17:21:44.156Z,17.90
2018-04-07T17:24:11.663Z,18.10
2018-04-07T17:26:39.342Z,18.10
2018-04-07T17:29:06.881Z,17.90
2018-04-07T17:31:34.528Z,17.70
2018-04-07T17:34:02.154Z,17.70
2018-04-07T17:36:30.459Z,17.50
2018-04-07T17:38:57.971Z,17.50
2018-04-07T17:41:26.274Z,17.30
2018-04-07T17:43:53.810Z,17.30
2018-04-07T17:46:21.416Z,17.30
2018-04-07T17:48:48.936Z,17.20
2018-04-07T17:51:16.655Z,17.20
2018-04-07T17:53:44.440Z,17.20
2018-04-07T17:56:11.954Z,17.10
2018-04-07T17:58:39.504Z,17.00
2018-04-07T18:01:07.104Z,16.90
2018-04-07T18:03:34.633Z,16.90
2018-04-07T18:06:02.153Z,16.90
2018-04-07T18:08:30.444Z,16.70
2018-04-07T18:10:59.054Z,16.70
2018-04-07T18:13:26.571Z,16.60
2018-04-07T18:15:54.075Z,16.60
2018-04-07T18:18:21.605Z,16.60
2018-04-07T18:20:49.163Z,16.60
2018-04-07T18:23:16.687Z,16.60
2018-04-07T18:25:44.205Z,16.50
2018-04-07T18:28:11.732Z,16.50
2018-04-07T18:30:39.317Z,16.40
2018-04-07T18:33:06.843Z,16.40
2018-04-07T18:35:34.571Z,16.40
2018-04-07T18:38:02.112Z,16.30
2018-04-07T18:40:29.623Z,16.30
2018-04-07T18:42:57.907Z,16.10
2018-04-07T18:45:25.588Z,16.10
2018-04-07T18:47:53.112Z,16.10
2018-04-07T18:50:20.814Z,16.10
2018-04-07T18:52:48.362Z,16.10
2018-04-07T18:55:15.900Z,16.00
2018-04-07T18:57:43.439Z,15.90
2018-04-07T19:00:10.960Z,15.90
2018-04-07T19:02:38.480Z,15.80
2018-04-07T19:05:06.202Z,15.80
2018-04-07T19:07:33.723Z,15.80
2018-04-07T19:10:01.259Z,15.70
2018-04-07T19:12:30.414Z,15.70
2018-04-07T19:14:58.660Z,15.70
2018-04-07T19:17:26.160Z,15.60
2018-04-07T19:19:53.682Z,15.60
2018-04-07T19:22:21.190Z,15.60
2018-04-07T19:24:48.892Z,15.50
2018-04-07T19:27:17.188Z,15.50
2018-04-07T19:29:44.708Z,15.50
2018-04-07T19:32:12.211Z,15.50
2018-04-07T19:34:39.752Z,15.30
2018-04-07T19:37:07.420Z,15.30
2018-04-07T19:39:34.939Z,15.30
2018-04-07T19:42:02.481Z,15.20
2018-04-07T19:44:30.759Z,15.20
2018-04-07T19:46:58.440Z,15.20
2018-04-07T19:49:25.968Z,15.20
2018-04-07T19:51:53.472Z,15.20
2018-04-07T19:54:21.173Z,15.20
2018-04-07T19:56:48.694Z,15.20
2018-04-07T19:59:16.392Z,15.10
2018-04-07T20:01:43.901Z,15.10
2018-04-07T20:04:11.591Z,15.00
2018-04-07T20:06:39.179Z,15.00
2018-04-07T20:09:06.662Z,14.90
2018-04-07T20:11:34.962Z,14.90
2018-04-07T20:14:02.659Z,14.90
2018-04-07T20:16:30.187Z,14.80
2018-04-07T20:18:57.753Z,14.80
2018-04-07T20:21:25.260Z,14.80
2018-04-07T20:23:52.776Z,14.80
2018-04-07T20:26:20.299Z,14.80
2018-04-07T20:28:48.000Z,14.80
2018-04-07T20:31:15.543Z,14.70
2018-04-07T20:33:43.076Z,14.70
2018-04-07T20:36:11.351Z,14.70
2018-04-07T20:38:38.987Z,14.70
2018-04-07T20:41:06.528Z,14.70
2018-04-07T20:43:34.292Z,14.70
2018-04-07T20:46:01.804Z,14.70
2018-04-07T20:48:29.495Z,14.70
2018-04-07T20:53:30.880Z,14.50
2018-04-07T20:55:58.420Z,14.50
2018-04-07T20:58:26.088Z,14.50
2018-04-07T21:00:53.612Z,14.50
2018-04-07T21:03:21.305Z,14.50
2018-04-07T21:05:48.821Z,14.50
2018-04-07T21:08:16.359Z,14.40
2018-04-07T21:10:44.644Z,14.40
2018-04-07T21:13:12.370Z,14.30
2018-04-07T21:15:40.134Z,14.30
2018-04-07T21:18:07.638Z,14.20
2018-04-07T21:20:35.182Z,14.20
2018-04-07T21:23:03.509Z,14.20
2018-04-07T21:25:31.171Z,14.20
2018-04-07T21:27:59.343Z,14.20
2018-04-07T21:30:26.869Z,14.30
2018-04-07T21:32:54.437Z,14.20
2018-04-07T21:35:21.955Z,14.20
2018-04-07T21:37:50.389Z,14.10
2018-04-07T21:40:17.912Z,14.10
2018-04-07T21:42:45.531Z,14.00
2018-04-07T21:45:13.052Z,14.00
2018-04-07T21:47:40.882Z,13.90
2018-04-07T21:50:10.064Z,13.90
2018-04-07T21:52:37.597Z,13.90
2018-04-07T21:55:05.167Z,13.90
2018-04-07T21:57:32.691Z,14.00
2018-04-07T22:00:00.208Z,13.90
2018-04-07T22:02:27.928Z,13.90
2018-04-07T22:04:55.446Z,13.90
2018-04-07T22:07:22.964Z,13.80
2018-04-07T22:09:50.515Z,13.80
2018-04-07T22:12:18.042Z,13.90
2018-04-07T22:14:45.552Z,13.90
2018-04-07T22:17:13.089Z,13.90
2018-04-07T22:19:41.622Z,13.90
2018-04-07T22:22:09.139Z,14.00
2018-04-07T22:24:36.664Z,14.00
2018-04-07T22:27:04.341Z,13.90
2018-04-07T22:29:31.880Z,13.90
2018-04-07T22:31:59.403Z,13.30
2018-04-07T22:34:27.679Z,13.80
2018-04-07T22:36:55.396Z,13.80
2018-04-07T22:39:22.926Z,13.70
2018-04-07T22:41:50.440Z,13.60
2018-04-07T22:44:17.974Z,13.50
2018-04-07T22:46:45.506Z,13.50
2018-04-07T22:49:13.003Z,13.50
2018-04-07T22:51:40.751Z,13.40
2018-04-07T22:54:08.511Z,13.60
2018-04-07T22:56:36.042Z,13.50
2018-04-07T22:59:03.555Z,13.40
2018-04-07T23:01:31.191Z,13.40
2018-04-07T23:03:58.704Z,13.40
2018-04-07T23:06:26.424Z,13.30
2018-04-07T23:08:54.675Z,13.20
2018-04-07T23:11:22.191Z,13.30
2018-04-07T23:13:49.707Z,13.30
2018-04-07T23:16:17.232Z,13.30
2018-04-07T23:18:44.737Z,13.30
2018-04-07T23:21:12.271Z,13.30
2018-04-07T23:23:39.783Z,13.10
2018-04-07T23:26:07.325Z,13.20
2018-04-07T23:28:34.829Z,13.10
2018-04-07T23:31:02.947Z,13.20
2018-04-07T23:33:30.503Z,13.20
2018-04-07T23:35:59.012Z,13.20
2018-04-07T23:38:26.538Z,13.20
2018-04-07T23:40:54.158Z,13.10
2018-04-07T23:43:21.673Z,13.10
2018-04-07T23:45:49.195Z,13.10
2018-04-07T23:48:16.827Z,13.00
2018-04-07T23:50:44.364Z,13.00
2018-04-07T23:53:11.872Z,13.00
2018-04-07T23:55:39.391Z,12.90
2018-04-07T23:58:06.913Z,12.90
